createdAt,value
2023-03-18T00:02:56.566Z,11.03
2023-03-18T00:06:07.282Z,10.98
2023-03-18T00:09:11.534Z,10.86
2023-03-18T00:12:14.424Z,10.95
2023-03-18T00:15:19.266Z,10.88
2023-03-18T00:18:23.512Z,10.87
2023-03-18T00:21:27.188Z,10.75
2023-03-18T00:24:30.634Z,10.75
2023-03-18T00:27:33.971Z,10.81
2023-03-18T00:30:40.072Z,10.82
2023-03-18T00:33:45.817Z,10.84
2023-03-18T00:36:50.822Z,10.85
2023-03-18T00:39:54.230Z,10.81
2023-03-18T00:43:07.883Z,10.70
2023-03-18T00:46:11.655Z,10.73
2023-03-18T00:49:17.833Z,10.85
2023-03-18T00:52:20.599Z,10.87
2023-03-18T00:55:24.042Z,10.77
2023-03-18T00:58:27.166Z,10.85
2023-03-18T01:01:31.267Z,10.78
2023-03-18T01:04:36.025Z,10.75
2023-03-18T01:07:38.742Z,10.69
2023-03-18T01:10:41.647Z,10.54
2023-03-18T01:13:44.798Z,10.47
2023-03-18T01:16:47.855Z,10.50
2023-03-18T01:19:52.281Z,10.49
2023-03-18T01:22:54.985Z,10.47
2023-03-18T01:25:58.989Z,10.42
2023-03-18T01:29:02.928Z,10.50
2023-03-18T01:32:06.465Z,10.51
2023-03-18T01:35:12.425Z,10.43
2023-03-18T01:38:15.317Z,10.45
2023-03-18T01:41:18.823Z,10.59
2023-03-18T01:44:23.378Z,10.30
2023-03-18T01:47:26.103Z,10.38
2023-03-18T01:50:33.683Z,10.41
2023-03-18T01:53:41.176Z,10.55
2023-03-18T01:56:47.561Z,10.47
2023-03-18T01:59:52.224Z,10.38
2023-03-18T02:02:55.698Z,10.66
2023-03-18T02:06:00.077Z,10.52
2023-03-18T02:09:03.994Z,10.48
2023-03-18T02:12:08.827Z,10.56
2023-03-18T02:15:14.754Z,10.34
2023-03-18T02:18:21.476Z,10.36
2023-03-18T02:21:38.716Z,10.55
2023-03-18T02:24:50.891Z,10.42
2023-03-18T02:27:59.288Z,10.45
2023-03-18T02:31:06.368Z,10.43
2023-03-18T02:34:11.707Z,10.34
2023-03-18T02:37:14.746Z,10.41
2023-03-18T02:40:19.423Z,10.49
2023-03-18T02:43:27.388Z,10.54
2023-03-18T02:46:36.430Z,10.45
2023-03-18T02:49:39.155Z,10.50
2023-03-18T02:52:42.277Z,10.49
2023-03-18T02:55:45.097Z,10.46
2023-03-18T02:58:51.655Z,10.48
2023-03-18T03:01:56.059Z,10.41
2023-03-18T03:04:58.788Z,10.47
2023-03-18T03:08:01.923Z,10.47
2023-03-18T03:11:04.993Z,10.54
2023-03-18T03:14:09.598Z,10.48
2023-03-18T03:17:12.644Z,10.43
2023-03-18T03:20:15.950Z,10.47
2023-03-18T03:23:18.953Z,10.40
2023-03-18T03:26:22.589Z,10.20
2023-03-18T03:29:26.826Z,10.25
2023-03-18T03:32:30.094Z,10.42
2023-03-18T03:35:33.581Z,10.45
2023-03-18T03:38:36.417Z,10.40
2023-03-18T03:41:39.274Z,10.42
2023-03-18T03:44:44.270Z,10.34
2023-03-18T03:47:47.482Z,10.44
2023-03-18T03:50:51.850Z,10.43
2023-03-18T03:53:54.954Z,10.38
2023-03-18T03:56:57.777Z,10.40
2023-03-18T04:00:02.235Z,10.30
2023-03-18T04:03:05.201Z,10.23
2023-03-18T04:06:08.696Z,10.16
2023-03-18T04:09:11.444Z,10.23
2023-03-18T04:12:15.081Z,10.30
2023-03-18T04:15:21.307Z,10.13
2023-03-18T04:18:24.018Z,10.25
2023-03-18T04:21:27.277Z,10.29
2023-03-18T04:24:30.040Z,10.30
2023-03-18T04:27:33.507Z,10.09
2023-03-18T04:30:37.777Z,10.28
2023-03-18T04:33:40.842Z,10.17
2023-03-18T04:36:43.709Z,10.14
2023-03-18T04:39:46.626Z,10.07
2023-03-18T04:42:49.711Z,10.11
2023-03-18T04:45:54.060Z,10.16
2023-03-18T04:48:58.346Z,10.05
2023-03-18T04:52:02.177Z,10.11
2023-03-18T04:55:05.333Z,10.11
2023-03-18T04:58:08.488Z,10.15
2023-03-18T05:01:13.114Z,10.09
2023-03-18T05:04:16.871Z,10.05
2023-03-18T05:07:20.246Z,10.10
2023-03-18T05:10:23.130Z,10.22
2023-03-18T05:13:26.029Z,10.02
2023-03-18T05:16:31.050Z,10.09
2023-03-18T05:19:33.960Z,9.96
2023-03-18T05:22:37.101Z,9.90
2023-03-18T05:25:39.847Z,9.89
2023-03-18T05:28:42.567Z,9.74
2023-03-18T05:31:46.729Z,9.77
2023-03-18T05:34:49.675Z,9.93
2023-03-18T05:37:52.629Z,9.79
2023-03-18T05:40:55.665Z,9.73
2023-03-18T05:43:58.523Z,9.78
2023-03-18T05:47:03.049Z,9.68
2023-03-18T05:50:06.357Z,9.85
2023-03-18T05:53:10.882Z,9.86
2023-03-18T05:56:14.807Z,9.90
2023-03-18T05:59:17.639Z,9.80
2023-03-18T06:02:21.800Z,9.84
2023-03-18T06:05:25.737Z,9.75
2023-03-18T06:08:28.735Z,9.63
2023-03-18T06:11:31.445Z,9.56
2023-03-18T06:14:34.211Z,9.47
2023-03-18T06:17:38.730Z,9.40
2023-03-18T06:20:41.859Z,9.45
2023-03-18T06:23:45.035Z,9.42
2023-03-18T06:26:47.918Z,9.59
2023-03-18T06:29:50.908Z,9.56
2023-03-18T06:32:55.027Z,9.51
2023-03-18T06:35:57.946Z,9.64
2023-03-18T06:39:00.671Z,9.62
2023-03-18T06:42:03.607Z,9.62
2023-03-18T06:45:07.495Z,9.64
2023-03-18T06:48:11.810Z,9.76
2023-03-18T06:51:14.936Z,9.89
2023-03-18T06:54:18.368Z,10.24
2023-03-18T06:57:21.769Z,10.60
2023-03-18T07:00:25.100Z,10.80
2023-03-18T07:03:29.219Z,11.08
2023-03-18T07:06:31.907Z,11.26
2023-03-18T07:09:34.808Z,11.40
2023-03-18T07:12:37.529Z,11.73
2023-03-18T07:15:40.334Z,11.94
2023-03-18T07:18:44.423Z,12.02
2023-03-18T07:21:47.465Z,12.07
2023-03-18T07:24:51.516Z,12.05
2023-03-18T07:27:54.413Z,12.27
2023-03-18T07:30:57.803Z,12.55
2023-03-18T07:34:01.929Z,12.64
2023-03-18T07:37:05.985Z,13.19
2023-03-18T07:40:10.084Z,13.22
2023-03-18T07:43:12.992Z,13.64
2023-03-18T07:46:15.685Z,13.66
2023-03-18T07:49:20.648Z,13.38
2023-03-18T07:52:23.510Z,13.35
2023-03-18T07:55:26.330Z,13.75
2023-03-18T07:58:29.580Z,14.14
2023-03-18T08:01:33.025Z,14.23
2023-03-18T08:04:37.790Z,14.39
2023-03-18T08:07:40.614Z,14.80
2023-03-18T08:10:43.539Z,14.96
2023-03-18T08:13:46.242Z,14.76
2023-03-18T08:16:49.624Z,14.91
2023-03-18T08:19:53.839Z,15.08
2023-03-18T08:22:57.236Z,15.19
2023-03-18T08:26:00.148Z,15.19
2023-03-18T08:29:02.939Z,15.87
2023-03-18T08:32:06.264Z,16.36
2023-03-18T08:35:11.527Z,16.40
2023-03-18T08:38:14.474Z,16.16
2023-03-18T08:41:17.902Z,15.99
2023-03-18T08:44:20.811Z,15.88
2023-03-18T08:47:25.206Z,15.76
2023-03-18T08:50:29.713Z,15.57
2023-03-18T08:53:32.518Z,15.47
2023-03-18T08:56:35.287Z,15.52
2023-03-18T08:59:38.047Z,15.59
2023-03-18T09:02:41.563Z,15.60
2023-03-18T09:05:49.033Z,15.40
2023-03-18T09:08:52.060Z,15.58
2023-03-18T09:11:54.772Z,15.78
2023-03-18T09:14:57.738Z,16.04
2023-03-18T09:18:11.551Z,16.18
2023-03-18T09:21:17.195Z,16.52
2023-03-18T09:24:19.992Z,16.74
2023-03-18T09:27:22.765Z,16.80
2023-03-18T09:30:26.503Z,16.85
2023-03-18T09:33:29.391Z,16.97
2023-03-18T09:36:33.560Z,16.81
2023-03-18T09:39:37.386Z,16.96
2023-03-18T09:42:52.383Z,17.13
2023-03-18T09:46:03.270Z,17.80
2023-03-18T09:49:39.082Z,18.01
2023-03-18T09:52:47.906Z,18.30
2023-03-18T09:55:55.827Z,18.48
2023-03-18T09:59:03.336Z,18.46
2023-03-18T10:02:19.637Z,18.43
2023-03-18T10:05:28.784Z,18.29
2023-03-18T10:08:45.002Z,18.28
2023-03-18T10:11:49.819Z,18.31
2023-03-18T10:15:02.492Z,18.36
2023-03-18T10:18:12.798Z,18.12
2023-03-18T10:21:28.079Z,18.18
2023-03-18T10:24:38.982Z,18.45
2023-03-18T10:27:50.448Z,18.75
2023-03-18T10:31:02.692Z,19.31
2023-03-18T10:34:11.483Z,19.57
2023-03-18T10:40:27.031Z,20.38
2023-03-18T10:43:32.702Z,20.12
2023-03-18T10:49:43.405Z,20.82
2023-03-18T10:52:52.869Z,20.44
2023-03-18T10:56:04.496Z,20.02
2023-03-18T10:59:12.958Z,19.85
2023-03-18T11:02:20.668Z,19.68
2023-03-18T11:05:26.097Z,19.49
2023-03-18T11:08:34.395Z,19.37
2023-03-18T11:11:41.496Z,19.17
2023-03-18T11:14:48.574Z,19.08
2023-03-18T11:17:52.390Z,19.29
2023-03-18T11:21:00.638Z,19.48
2023-03-18T11:24:10.599Z,19.98
2023-03-18T11:27:30.805Z,20.63
2023-03-18T11:30:45.229Z,20.08
2023-03-18T11:33:48.341Z,19.78
2023-03-18T11:36:58.840Z,19.37
2023-03-18T11:40:20.622Z,19.56
2023-03-18T11:43:25.709Z,19.59
2023-03-18T11:46:33.239Z,19.69
2023-03-18T11:49:36.147Z,20.06
2023-03-18T11:52:45.138Z,20.78
2023-03-18T11:55:51.826Z,20.68
2023-03-18T11:59:17.535Z,20.21
2023-03-18T12:02:32.029Z,20.40
2023-03-18T12:05:48.250Z,20.49
2023-03-18T12:09:01.703Z,20.73
2023-03-18T12:12:19.790Z,20.45
2023-03-18T12:15:38.745Z,20.65
2023-03-18T12:19:14.074Z,20.67
2023-03-18T12:22:30.260Z,20.84
2023-03-18T12:26:01.373Z,21.12
2023-03-18T12:29:38.493Z,21.09
2023-03-18T12:32:47.297Z,21.12
2023-03-18T12:35:57.354Z,21.02
2023-03-18T12:39:41.869Z,21.44
2023-03-18T12:42:58.238Z,21.44
2023-03-18T12:46:05.353Z,21.00
2023-03-18T12:49:16.856Z,20.70
2023-03-18T12:52:28.642Z,20.89
2023-03-18T12:55:34.771Z,20.90
2023-03-18T12:58:40.771Z,21.45
2023-03-18T13:01:50.082Z,21.42
2023-03-18T13:04:58.993Z,21.47
2023-03-18T13:08:25.352Z,21.46
2023-03-18T13:11:56.581Z,21.56
2023-03-18T13:15:02.322Z,21.30
2023-03-18T13:18:14.669Z,20.85
2023-03-18T13:21:22.872Z,20.71
2023-03-18T13:24:44.101Z,20.43
2023-03-18T13:28:09.673Z,20.06
2023-03-18T13:31:23.313Z,20.00
2023-03-18T13:34:41.054Z,20.08
2023-03-18T13:38:04.250Z,20.01
2023-03-18T13:41:22.360Z,20.26
2023-03-18T13:44:32.773Z,20.48
2023-03-18T13:47:38.812Z,20.25
2023-03-18T13:50:43.950Z,20.34
2023-03-18T13:53:50.613Z,20.42
2023-03-18T13:56:55.928Z,20.46
2023-03-18T14:00:22.605Z,20.27
2023-03-18T14:03:29.872Z,19.91
2023-03-18T14:06:55.325Z,19.78
2023-03-18T14:10:19.666Z,19.85
2023-03-18T14:13:28.388Z,19.93
2023-03-18T14:16:49.349Z,19.84
2023-03-18T14:19:55.188Z,19.88
2023-03-18T14:23:19.071Z,19.97
2023-03-18T14:26:26.444Z,19.83
2023-03-18T14:29:36.111Z,19.77
2023-03-18T14:32:40.858Z,19.83
2023-03-18T14:35:51.671Z,19.91
2023-03-18T14:39:03.050Z,19.94
2023-03-18T14:42:17.647Z,19.94
2023-03-18T14:45:25.934Z,19.84
2023-03-18T14:48:31.750Z,19.72
2023-03-18T14:51:35.367Z,19.65
2023-03-18T14:54:43.672Z,19.54
2023-03-18T14:57:47.888Z,19.66
2023-03-18T15:00:54.198Z,19.74
2023-03-18T15:03:57.423Z,19.63
2023-03-18T15:07:05.649Z,19.55
2023-03-18T15:10:11.556Z,19.57
2023-03-18T15:13:18.847Z,19.51
2023-03-18T15:16:25.214Z,19.38
2023-03-18T15:19:29.785Z,19.26
2023-03-18T15:22:34.761Z,19.15
2023-03-18T15:25:39.901Z,19.27
2023-03-18T15:28:47.701Z,19.25
2023-03-18T15:31:51.084Z,19.25
2023-03-18T15:34:56.575Z,19.32
2023-03-18T15:38:14.234Z,19.53
2023-03-18T15:41:21.631Z,19.26
2023-03-18T15:44:28.788Z,19.07
2023-03-18T15:47:33.609Z,18.93
2023-03-18T15:50:37.244Z,18.85
2023-03-18T15:53:42.637Z,18.90
2023-03-18T15:56:47.671Z,18.73
2023-03-18T15:59:51.768Z,18.60
2023-03-18T16:02:54.836Z,18.52
2023-03-18T16:05:58.923Z,18.55
2023-03-18T16:09:01.735Z,18.43
2023-03-18T16:12:14.354Z,18.50
2023-03-18T16:15:22.124Z,18.37
2023-03-18T16:18:25.327Z,18.31
2023-03-18T16:21:28.258Z,18.31
2023-03-18T16:24:31.573Z,18.46
2023-03-18T16:27:39.400Z,18.31
2023-03-18T16:30:43.490Z,18.24
2023-03-18T16:33:47.416Z,18.16
2023-03-18T16:36:52.088Z,18.08
2023-03-18T16:39:55.998Z,17.99
2023-03-18T16:42:58.912Z,17.89
2023-03-18T16:46:05.540Z,17.81
2023-03-18T16:49:14.827Z,17.75
2023-03-18T16:52:18.025Z,17.60
2023-03-18T16:55:21.258Z,17.51
2023-03-18T16:58:29.110Z,17.42
2023-03-18T17:01:33.612Z,17.30
2023-03-18T17:04:37.927Z,17.20
2023-03-18T17:07:40.940Z,17.10
2023-03-18T17:10:44.804Z,16.96
2023-03-18T17:13:48.668Z,16.82
2023-03-18T17:16:53.009Z,16.71
2023-03-18T17:19:57.236Z,16.56
2023-03-18T17:23:00.781Z,16.44
2023-03-18T17:26:04.705Z,16.32
2023-03-18T17:29:08.473Z,16.21
2023-03-18T17:32:12.594Z,16.10
2023-03-18T17:35:17.837Z,15.99
2023-03-18T17:38:21.643Z,15.92
2023-03-18T17:41:24.532Z,15.85
2023-03-18T17:44:30.281Z,15.75
2023-03-18T17:47:34.678Z,15.64
2023-03-18T17:50:37.693Z,15.58
2023-03-18T17:53:42.741Z,15.37
2023-03-18T17:56:45.874Z,15.23
2023-03-18T17:59:48.649Z,15.19
2023-03-18T18:02:54.498Z,15.09
2023-03-18T18:05:58.490Z,14.94
2023-03-18T18:09:02.467Z,14.83
2023-03-18T18:12:05.840Z,14.79
2023-03-18T18:15:19.340Z,14.75
2023-03-18T18:18:25.406Z,14.70
2023-03-18T18:21:28.160Z,14.59
2023-03-18T18:24:33.444Z,14.48
2023-03-18T18:27:36.472Z,14.26
2023-03-18T18:30:39.848Z,14.23
2023-03-18T18:33:45.600Z,14.20
2023-03-18T18:36:49.494Z,14.22
2023-03-18T18:39:52.495Z,14.21
2023-03-18T18:42:55.421Z,14.21
2023-03-18T18:45:59.040Z,14.10
2023-03-18T18:49:03.392Z,13.96
2023-03-18T18:52:07.287Z,13.91
2023-03-18T18:55:11.519Z,13.90
2023-03-18T18:58:17.893Z,13.88
2023-03-18T19:01:20.971Z,13.80
2023-03-18T19:04:25.332Z,13.70
2023-03-18T19:07:29.236Z,13.70
2023-03-18T19:10:32.369Z,13.69
2023-03-18T19:13:37.728Z,13.60
2023-03-18T19:16:40.596Z,13.51
2023-03-18T19:19:45.679Z,13.39
2023-03-18T19:22:50.532Z,13.37
2023-03-18T19:25:54.099Z,13.31
2023-03-18T19:28:59.619Z,13.27
2023-03-18T19:32:08.116Z,13.32
2023-03-18T19:35:14.223Z,13.28
2023-03-18T19:38:21.275Z,13.26
2023-03-18T19:41:24.074Z,13.28
2023-03-18T19:44:27.898Z,13.23
2023-03-18T19:47:31.628Z,13.19
2023-03-18T19:50:35.730Z,13.17
2023-03-18T19:53:38.613Z,13.08
2023-03-18T19:56:41.574Z,13.02
2023-03-18T19:59:46.264Z,12.90
2023-03-18T20:02:50.806Z,12.87
2023-03-18T20:05:54.886Z,12.76
2023-03-18T20:08:57.578Z,12.76
2023-03-18T20:12:04.726Z,12.73
2023-03-18T20:15:13.010Z,12.74
2023-03-18T20:18:17.794Z,12.72
2023-03-18T20:21:28.019Z,12.61
2023-03-18T20:24:30.843Z,12.66
2023-03-18T20:27:33.687Z,12.62
2023-03-18T20:30:37.781Z,12.61
2023-03-18T20:33:40.730Z,12.52
2023-03-18T20:36:44.962Z,12.50
2023-03-18T20:39:47.791Z,12.56
2023-03-18T20:42:52.748Z,12.61
2023-03-18T20:45:57.485Z,12.64
2023-03-18T20:49:00.232Z,12.64
2023-03-18T20:52:05.819Z,12.95
2023-03-18T20:55:21.470Z,13.13
2023-03-18T20:58:25.456Z,13.25
2023-03-18T21:01:28.185Z,13.20
2023-03-18T21:04:31.306Z,13.23
2023-03-18T21:07:35.548Z,13.25
2023-03-18T21:10:38.885Z,13.27
2023-03-18T21:13:42.844Z,13.20
2023-03-18T21:16:46.164Z,13.30
2023-03-18T21:19:49.898Z,13.28
2023-03-18T21:22:56.237Z,13.26
2023-03-18T21:25:59.542Z,13.10
2023-03-18T21:29:02.336Z,12.87
2023-03-18T21:32:05.469Z,12.86
2023-03-18T21:35:15.826Z,12.89
2023-03-18T21:38:20.105Z,12.96
2023-03-18T21:41:27.146Z,13.02
2023-03-18T21:44:30.128Z,12.86
2023-03-18T21:47:32.885Z,12.74
2023-03-18T21:50:36.151Z,12.83
2023-03-18T21:53:40.338Z,12.75
2023-03-18T21:56:43.173Z,12.70
2023-03-18T21:59:46.648Z,12.61
2023-03-18T22:02:50.476Z,12.62
2023-03-18T22:05:54.508Z,12.65
2023-03-18T22:08:58.649Z,12.72
2023-03-18T22:12:01.377Z,12.72
2023-03-18T22:15:05.589Z,12.63
2023-03-18T22:18:08.483Z,12.55
2023-03-18T22:21:15.469Z,12.46
2023-03-18T22:24:19.702Z,12.46
2023-03-18T22:27:25.374Z,12.37
2023-03-18T22:30:30.796Z,12.08
2023-03-18T22:33:34.733Z,12.12
2023-03-18T22:36:37.542Z,12.01
2023-03-18T22:39:42.979Z,12.03
2023-03-18T22:42:47.448Z,11.98
2023-03-18T22:45:50.387Z,11.85
2023-03-18T22:48:53.280Z,11.82
2023-03-18T22:51:56.292Z,11.91
2023-03-18T22:55:02.782Z,11.99
2023-03-18T22:58:06.163Z,12.07
2023-03-18T23:01:10.606Z,12.00
2023-03-18T23:04:13.693Z,11.83
2023-03-18T23:07:31.366Z,11.76
2023-03-18T23:10:36.315Z,11.63
2023-03-18T23:13:41.657Z,11.60
2023-03-18T23:16:44.352Z,11.60
2023-03-18T23:19:47.406Z,11.54
2023-03-18T23:22:50.264Z,11.55
2023-03-18T23:25:54.404Z,11.78
2023-03-18T23:28:57.373Z,11.62
2023-03-18T23:32:00.631Z,11.70
2023-03-18T23:35:03.648Z,11.70
2023-03-18T23:38:07.242Z,11.55
2023-03-18T23:41:11.575Z,11.65
2023-03-18T23:44:14.481Z,11.57
2023-03-18T23:47:17.469Z,11.53
2023-03-18T23:50:20.499Z,11.42
2023-03-18T23:53:23.397Z,11.48
2023-03-18T23:56:27.627Z,11.45
2023-03-18T23:59:31.206Z,11.50
